createdAt,value
2019-04-22T00:00:53.826Z,0.00
2019-04-22T00:01:59.375Z,0.00
2019-04-22T00:02:57.530Z,0.00
2019-04-22T00:03:55.198Z,0.00
2019-04-22T00:05:03.226Z,0.00
2019-04-22T00:06:12.882Z,0.00
2019-04-22T00:07:18.557Z,0.00
2019-04-22T00:08:16.848Z,0.00
2019-04-22T00:09:17.374Z,0.00
2019-04-22T00:10:19.492Z,0.00
2019-04-22T00:11:20.455Z,0.00
2019-04-22T00:12:22.329Z,0.00
2019-04-22T00:13:21.900Z,0.00
2019-04-22T00:14:14.966Z,0.00
2019-04-22T00:15:11.614Z,0.00
2019-04-22T00:16:19.270Z,0.00
2019-04-22T00:17:23.384Z,0.00
2019-04-22T00:18:50.562Z,0.00
2019-04-22T00:20:14.343Z,0.00
2019-04-22T00:21:22.557Z,0.00
2019-04-22T00:22:18.226Z,0.00
2019-04-22T00:23:12.826Z,0.00
2019-04-22T00:24:21.469Z,0.00
2019-04-22T00:25:22.597Z,0.00
2019-04-22T00:26:16.136Z,0.00
2019-04-22T00:27:26.125Z,0.00
2019-04-22T00:28:15.762Z,0.00
2019-04-22T00:29:39.486Z,0.00
2019-04-22T00:30:16.570Z,0.00
2019-04-22T00:31:19.225Z,0.00
2019-04-22T00:32:11.532Z,0.00
2019-04-22T00:33:16.419Z,0.00
2019-04-22T00:34:14.394Z,0.00
2019-04-22T00:35:12.754Z,0.00
2019-04-22T00:36:16.398Z,0.00
2019-04-22T00:37:17.491Z,0.00
2019-04-22T00:38:19.110Z,0.00
2019-04-22T00:39:21.312Z,0.00
2019-04-22T00:40:24.724Z,0.00
2019-04-22T00:41:13.170Z,0.00
2019-04-22T00:42:18.133Z,0.00
2019-04-22T00:43:21.328Z,0.00
2019-04-22T00:44:21.954Z,0.00
2019-04-22T00:45:23.985Z,0.00
2019-04-22T00:46:22.258Z,0.00
2019-04-22T00:47:21.227Z,0.00
2019-04-22T00:48:20.697Z,0.00
2019-04-22T00:50:19.006Z,0.00
2019-04-22T00:52:16.634Z,0.00
2019-04-22T00:53:16.333Z,0.00
2019-04-22T00:54:17.060Z,0.00
2019-04-22T00:57:20.002Z,0.00
2019-04-22T00:58:17.838Z,0.00
2019-04-22T00:59:15.641Z,0.00
2019-04-22T01:00:21.366Z,0.00
2019-04-22T01:02:13.349Z,0.00
2019-04-22T01:03:19.763Z,0.00
2019-04-22T01:04:19.911Z,0.00
2019-04-22T01:05:16.491Z,0.00
2019-04-22T01:06:17.232Z,0.00
2019-04-22T01:07:18.790Z,0.00
2019-04-22T01:08:25.419Z,0.00
2019-04-22T01:09:33.037Z,0.00
2019-04-22T01:10:20.641Z,0.00
2019-04-22T01:11:17.288Z,0.00
2019-04-22T01:12:24.724Z,0.00
2019-04-22T01:13:19.974Z,0.00
2019-04-22T01:14:16.107Z,0.00
2019-04-22T01:15:14.801Z,0.00
2019-04-22T01:16:17.058Z,0.00
2019-04-22T01:17:11.650Z,0.00
2019-04-22T01:18:09.702Z,0.00
2019-04-22T01:19:12.301Z,0.00
2019-04-22T01:20:38.530Z,0.00
2019-04-22T01:22:13.629Z,0.00
2019-04-22T01:23:14.724Z,0.00
2019-04-22T01:24:09.118Z,0.00
2019-04-22T01:25:08.842Z,0.00
2019-04-22T01:26:09.989Z,0.00
2019-04-22T01:27:09.350Z,0.00
2019-04-22T01:28:10.229Z,0.00
2019-04-22T01:29:00.951Z,0.00
2019-04-22T01:30:03.712Z,0.00
2019-04-22T01:31:00.105Z,0.00
2019-04-22T01:31:51.061Z,0.00
2019-04-22T01:32:52.902Z,0.00
2019-04-22T01:34:08.395Z,0.00
2019-04-22T01:35:05.037Z,0.00
2019-04-22T01:36:09.327Z,0.00
2019-04-22T01:37:09.074Z,0.00
2019-04-22T01:38:11.471Z,0.00
2019-04-22T01:39:17.557Z,0.00
2019-04-22T01:40:16.648Z,0.00
2019-04-22T01:41:16.426Z,0.00
2019-04-22T01:42:10.805Z,0.00
2019-04-22T01:43:18.615Z,0.00
2019-04-22T01:44:22.610Z,0.00
2019-04-22T01:45:20.531Z,0.00
2019-04-22T01:46:18.400Z,0.00
2019-04-22T01:47:18.646Z,0.00
2019-04-22T01:48:22.797Z,0.00
2019-04-22T01:49:16.005Z,0.00
2019-04-22T01:50:16.213Z,0.00
2019-04-22T01:51:07.636Z,0.00
2019-04-22T01:52:17.063Z,0.00
2019-04-22T01:53:24.658Z,0.00
2019-04-22T01:54:22.325Z,0.00
2019-04-22T01:55:24.842Z,0.00
2019-04-22T01:56:13.795Z,0.00
2019-04-22T01:57:09.914Z,0.00
2019-04-22T01:58:11.231Z,0.00
2019-04-22T01:59:06.411Z,0.00
2019-04-22T02:00:09.049Z,0.00
2019-04-22T02:01:13.531Z,0.00
2019-04-22T02:02:16.182Z,0.00
2019-04-22T02:03:17.660Z,0.00
2019-04-22T02:04:17.837Z,0.00
2019-04-22T02:05:17.724Z,0.00
2019-04-22T02:06:14.933Z,0.00
2019-04-22T02:07:21.894Z,0.00
2019-04-22T02:08:25.511Z,0.00
2019-04-22T02:10:22.856Z,0.00
2019-04-22T02:11:17.688Z,0.00
2019-04-22T02:13:15.389Z,0.00
2019-04-22T02:14:19.844Z,0.00
2019-04-22T02:15:19.692Z,0.00
2019-04-22T02:16:15.204Z,0.00
2019-04-22T02:17:17.477Z,0.00
2019-04-22T02:18:27.712Z,0.00
2019-04-22T02:19:30.382Z,0.00
2019-04-22T02:20:31.155Z,0.00
2019-04-22T02:21:13.695Z,0.00
2019-04-22T02:22:19.051Z,0.00
2019-04-22T02:23:40.789Z,0.00
2019-04-22T02:24:19.919Z,0.00
2019-04-22T02:25:15.860Z,0.00
2019-04-22T02:26:15.550Z,0.00
2019-04-22T02:27:17.703Z,0.00
2019-04-22T02:28:28.311Z,0.00
2019-04-22T02:29:17.172Z,0.00
2019-04-22T02:30:16.601Z,0.00
2019-04-22T02:31:25.824Z,0.00
2019-04-22T02:32:34.731Z,0.00
2019-04-22T02:33:46.728Z,0.00
2019-04-22T02:34:21.692Z,0.00
2019-04-22T02:35:23.862Z,0.00
2019-04-22T02:36:27.924Z,0.00
2019-04-22T02:37:29.648Z,0.00
2019-04-22T02:38:42.643Z,0.00
2019-04-22T02:39:19.851Z,0.00
2019-04-22T02:40:19.364Z,0.00
2019-04-22T02:41:26.101Z,0.00
2019-04-22T02:42:14.140Z,0.00
2019-04-22T02:43:34.252Z,0.00
2019-04-22T02:44:21.808Z,0.00
2019-04-22T02:45:18.838Z,0.00
2019-04-22T02:47:31.467Z,0.00
2019-04-22T02:48:34.025Z,0.00
2019-04-22T02:50:37.416Z,0.00
2019-04-22T02:53:36.545Z,0.00
2019-04-22T02:55:27.651Z,0.00
2019-04-22T02:56:27.341Z,0.00
2019-04-22T02:57:35.802Z,0.00
2019-04-22T02:58:25.720Z,0.00
2019-04-22T02:59:27.918Z,0.00
2019-04-22T03:00:21.666Z,0.00
2019-04-22T03:02:43.034Z,0.00
2019-04-22T03:03:31.119Z,0.00
2019-04-22T03:05:27.105Z,0.00
2019-04-22T03:06:30.769Z,0.00
2019-04-22T03:07:20.762Z,0.00
2019-04-22T03:08:23.714Z,0.00
2019-04-22T03:09:28.381Z,0.00
2019-04-22T03:10:26.573Z,0.00
2019-04-22T03:11:24.913Z,0.00
2019-04-22T03:14:22.650Z,4.00
2019-04-22T03:15:15.982Z,0.00
2019-04-22T03:16:29.686Z,0.00
2019-04-22T03:17:26.129Z,4.00
2019-04-22T03:18:35.852Z,4.00
2019-04-22T03:19:34.066Z,4.00
2019-04-22T03:20:18.003Z,4.00
2019-04-22T03:21:17.944Z,4.00
2019-04-22T03:22:24.072Z,4.00
2019-04-22T03:23:36.839Z,8.00
2019-04-22T03:27:19.126Z,12.00
2019-04-22T03:28:27.387Z,12.00
2019-04-22T03:29:18.087Z,20.00
2019-04-22T03:31:40.337Z,20.00
2019-04-22T03:33:20.110Z,32.00
2019-04-22T03:35:37.099Z,44.00
2019-04-22T03:37:00.389Z,48.00
2019-04-22T03:38:18.245Z,68.00
2019-04-22T03:40:30.259Z,92.00
2019-04-22T03:41:27.233Z,108.00
2019-04-22T03:42:09.921Z,124.00
2019-04-22T03:43:43.773Z,144.00
2019-04-22T03:44:33.823Z,160.00
2019-04-22T03:46:21.619Z,204.00
2019-04-22T03:47:31.823Z,228.00
2019-04-22T03:48:16.058Z,260.00
2019-04-22T03:51:25.439Z,352.00
2019-04-22T03:54:29.806Z,464.00
2019-04-22T03:56:56.856Z,552.00
2019-04-22T03:57:40.479Z,596.00
2019-04-22T03:58:11.132Z,644.00
2019-04-22T03:59:29.569Z,696.00
2019-04-22T04:00:26.512Z,748.00
2019-04-22T04:01:30.545Z,804.00
2019-04-22T04:03:19.096Z,932.00
2019-04-22T04:04:23.987Z,992.00
2019-04-22T04:05:33.172Z,1060.00
2019-04-22T04:06:17.386Z,1128.00
2019-04-22T04:07:38.312Z,1196.00
2019-04-22T04:08:20.171Z,1260.00
2019-04-22T04:11:26.950Z,1512.00
2019-04-22T04:13:17.600Z,1660.00
2019-04-22T04:16:21.311Z,2076.00
2019-04-22T04:17:21.831Z,2136.00
2019-04-22T04:18:30.683Z,2152.00
2019-04-22T04:19:31.364Z,2232.00
2019-04-22T04:22:33.975Z,2332.00
2019-04-22T04:26:26.779Z,2604.00
2019-04-22T04:29:35.694Z,2844.00
2019-04-22T04:30:30.049Z,2964.00
2019-04-22T04:31:25.302Z,3188.00
2019-04-22T04:34:37.524Z,3776.00
2019-04-22T04:36:18.628Z,4076.00
2019-04-22T04:37:41.001Z,4124.00
2019-04-22T04:39:01.078Z,4108.00
2019-04-22T04:39:26.807Z,4156.00
2019-04-22T04:43:16.151Z,4852.00
2019-04-22T04:44:22.757Z,4960.00
2019-04-22T04:45:32.046Z,5132.00
2019-04-22T04:46:26.771Z,5244.00
2019-04-22T04:47:35.338Z,5440.00
2019-04-22T04:48:21.327Z,5580.00
2019-04-22T04:51:24.388Z,5744.00
2019-04-22T04:52:27.643Z,5924.00
2019-04-22T04:53:20.520Z,6080.00
2019-04-22T04:55:24.090Z,6424.00
2019-04-22T04:56:36.258Z,6952.00
2019-04-22T04:57:32.005Z,7704.00
2019-04-22T04:58:36.077Z,8140.00
2019-04-22T04:59:29.895Z,8152.00
2019-04-22T05:01:27.074Z,8844.00
2019-04-22T05:03:29.731Z,9664.00
2019-04-22T05:05:16.828Z,11056.00
2019-04-22T05:06:30.758Z,11744.00
2019-04-22T05:08:28.897Z,13696.00
2019-04-22T05:11:24.467Z,14944.00
2019-04-22T05:13:39.550Z,13728.00
2019-04-22T05:15:21.158Z,13824.00
2019-04-22T05:17:18.553Z,14272.00
2019-04-22T05:20:21.495Z,14016.00
2019-04-22T05:22:14.918Z,14048.00
2019-04-22T05:23:20.285Z,14240.00
2019-04-22T05:24:16.846Z,13900.00
2019-04-22T05:26:21.837Z,14752.00
2019-04-22T05:27:20.501Z,15104.00
2019-04-22T05:28:15.101Z,15584.00
2019-04-22T05:29:17.014Z,15648.00
2019-04-22T05:30:23.183Z,15808.00
2019-04-22T05:31:16.121Z,16064.00
2019-04-22T05:32:31.256Z,16576.00
2019-04-22T05:33:16.754Z,17664.00
2019-04-22T05:34:17.355Z,17696.00
2019-04-22T05:35:14.483Z,18272.00
2019-04-22T05:36:13.006Z,18560.00
2019-04-22T05:37:14.828Z,18656.00
2019-04-22T05:39:14.187Z,20416.00
2019-04-22T05:40:20.137Z,19936.00
2019-04-22T05:41:10.155Z,19552.00
2019-04-22T05:42:14.038Z,19904.00
2019-04-22T05:43:15.913Z,20672.00
2019-04-22T05:44:14.433Z,20768.00
2019-04-22T05:45:17.309Z,20448.00
2019-04-22T05:46:09.641Z,20768.00
2019-04-22T05:47:14.691Z,21312.00
2019-04-22T05:48:14.527Z,20704.00
2019-04-22T05:49:19.284Z,21760.00
2019-04-22T05:50:13.857Z,22112.00
2019-04-22T05:51:09.785Z,22944.00
2019-04-22T05:52:14.826Z,23296.00
2019-04-22T05:53:07.213Z,24000.00
2019-04-22T05:54:14.593Z,24864.00
2019-04-22T05:55:15.701Z,26048.00
2019-04-22T05:56:20.748Z,26528.00
2019-04-22T05:57:14.506Z,27392.00
2019-04-22T05:58:15.327Z,28704.00
2019-04-22T05:59:12.538Z,28768.00
2019-04-22T06:00:14.637Z,28096.00
2019-04-22T06:03:08.556Z,32256.00
2019-04-22T06:04:11.304Z,32544.00
2019-04-22T06:05:10.125Z,32608.00
2019-04-22T06:06:16.728Z,33792.00
2019-04-22T06:07:13.667Z,34880.00
2019-04-22T06:08:10.230Z,35200.00
2019-04-22T06:09:12.552Z,34912.00
2019-04-22T06:10:24.399Z,35136.00
2019-04-22T06:11:18.445Z,35328.00
2019-04-22T06:12:04.892Z,37216.00
2019-04-22T06:13:04.391Z,38976.00
2019-04-22T06:14:12.351Z,38240.00
2019-04-22T06:15:14.657Z,36032.00
2019-04-22T06:16:12.465Z,31968.00
2019-04-22T06:17:15.682Z,32352.00
2019-04-22T06:18:16.199Z,37088.00
2019-04-22T06:19:13.996Z,40992.00
2019-04-22T06:20:10.602Z,41920.00
2019-04-22T06:21:11.411Z,41440.00
2019-04-22T06:22:25.271Z,42304.00
2019-04-22T06:23:19.073Z,43072.00
2019-04-22T06:24:18.972Z,43744.00
2019-04-22T06:25:22.716Z,44960.00
2019-04-22T06:26:27.217Z,44352.00
2019-04-22T06:27:18.735Z,43744.00
2019-04-22T06:28:26.341Z,45536.00
2019-04-22T06:29:15.293Z,46464.00
2019-04-22T06:30:17.288Z,44832.00
2019-04-22T06:31:15.751Z,44800.00
2019-04-22T06:33:16.320Z,45664.00
2019-04-22T06:34:20.775Z,45248.00
2019-04-22T06:35:18.498Z,45408.00
2019-04-22T06:36:15.755Z,45600.00
2019-04-22T06:37:12.822Z,45696.00
2019-04-22T06:39:14.718Z,46912.00
2019-04-22T06:40:16.488Z,47520.00
2019-04-22T06:41:15.058Z,47328.00
2019-04-22T06:42:13.395Z,46208.00
2019-04-22T06:43:15.836Z,46912.00
2019-04-22T06:45:15.560Z,48640.00
2019-04-22T06:46:14.685Z,49248.00
2019-04-22T06:47:14.799Z,48416.00
2019-04-22T06:49:18.749Z,46880.00
2019-04-22T06:50:16.393Z,47360.00
2019-04-22T06:51:15.279Z,48800.00
2019-04-22T06:52:15.283Z,49984.00
2019-04-22T06:53:09.129Z,49600.00
2019-04-22T06:54:17.617Z,49600.00
2019-04-22T06:55:15.144Z,49312.00
2019-04-22T06:56:11.193Z,49280.00
2019-04-22T06:57:11.618Z,49248.00
2019-04-22T06:58:10.699Z,49632.00
2019-04-22T06:59:14.734Z,50464.00
2019-04-22T07:00:10.623Z,49728.00
2019-04-22T07:01:19.359Z,48608.00
2019-04-22T07:02:16.480Z,49056.00
2019-04-22T07:03:30.085Z,49600.00
2019-04-22T07:04:14.876Z,49312.00
2019-04-22T07:05:28.488Z,48672.00
2019-04-22T07:06:17.546Z,49312.00
2019-04-22T07:07:12.736Z,50880.00
2019-04-22T07:08:30.407Z,51552.00
2019-04-22T07:10:23.801Z,48160.00
2019-04-22T07:11:08.953Z,48864.00
2019-04-22T07:12:12.073Z,49728.00
2019-04-22T07:13:17.985Z,49600.00
2019-04-22T07:14:09.394Z,50944.00
2019-04-22T07:15:24.470Z,51424.00
2019-04-22T07:16:11.450Z,51648.00
2019-04-22T07:19:13.834Z,52608.00
2019-04-22T07:20:10.684Z,52768.00
2019-04-22T07:21:06.719Z,54144.00
2019-04-22T07:22:11.263Z,56096.00
2019-04-22T07:23:13.760Z,55904.00
2019-04-22T07:24:27.474Z,55200.00
2019-04-22T07:25:10.526Z,53856.00
2019-04-22T07:26:07.610Z,53632.00
2019-04-22T07:27:12.915Z,55136.00
2019-04-22T07:28:11.210Z,56960.00
2019-04-22T07:29:17.274Z,57056.00
2019-04-22T07:30:16.512Z,55648.00
2019-04-22T07:31:14.319Z,54752.00
2019-04-22T07:32:47.715Z,56544.00
2019-04-22T07:34:24.942Z,62240.00
2019-04-22T07:35:17.963Z,61952.00
2019-04-22T07:36:30.695Z,60800.00
2019-04-22T07:37:22.796Z,60640.00
2019-04-22T07:38:18.720Z,63232.00
2019-04-22T07:39:09.833Z,63808.00
2019-04-22T07:40:13.790Z,62976.00
2019-04-22T07:41:14.697Z,63264.00
2019-04-22T07:42:16.653Z,65120.00
2019-04-22T07:43:12.185Z,65632.00
2019-04-22T07:44:20.701Z,64608.00
2019-04-22T07:45:10.280Z,64768.00
2019-04-22T07:46:27.913Z,67200.00
2019-04-22T07:48:22.494Z,70240.00
2019-04-22T07:49:10.512Z,70368.00
2019-04-22T07:50:22.973Z,69472.00
2019-04-22T07:52:09.848Z,68768.00
2019-04-22T07:53:13.291Z,71936.00
2019-04-22T07:54:16.438Z,73184.00
2019-04-22T07:55:07.370Z,74624.00
2019-04-22T07:56:15.739Z,74208.00
2019-04-22T07:57:22.733Z,73888.00
2019-04-22T07:58:11.727Z,72672.00
2019-04-22T07:59:13.914Z,71680.00
2019-04-22T08:01:14.086Z,75872.00
2019-04-22T08:02:09.358Z,75552.00
2019-04-22T08:03:13.263Z,73536.00
2019-04-22T08:04:16.004Z,72320.00
2019-04-22T08:06:17.293Z,75424.00
2019-04-22T08:07:14.422Z,73888.00
2019-04-22T08:08:17.465Z,71392.00
2019-04-22T08:09:13.953Z,72288.00
2019-04-22T08:10:15.382Z,74272.00
2019-04-22T08:11:21.583Z,74464.00
2019-04-22T08:12:04.144Z,72448.00
2019-04-22T08:13:19.655Z,69472.00
2019-04-22T08:14:18.875Z,69088.00
2019-04-22T08:15:13.074Z,70912.00
2019-04-22T08:16:10.680Z,70272.00
2019-04-22T08:17:38.863Z,71360.00
2019-04-22T08:18:08.612Z,73408.00
2019-04-22T08:19:16.926Z,76224.00
2019-04-22T08:21:12.291Z,76160.00
2019-04-22T08:22:07.911Z,77216.00
2019-04-22T08:23:14.181Z,76416.00
2019-04-22T08:24:14.720Z,75840.00
2019-04-22T08:25:04.243Z,75872.00
2019-04-22T08:26:05.390Z,73248.00
2019-04-22T08:27:10.353Z,73824.00
2019-04-22T08:28:13.261Z,72384.00
2019-04-22T08:29:14.849Z,69568.00
2019-04-22T08:30:14.156Z,69248.00
2019-04-22T08:31:14.870Z,69376.00
2019-04-22T08:32:32.691Z,67584.00
2019-04-22T08:33:16.159Z,67264.00
2019-04-22T08:34:14.151Z,63104.00
2019-04-22T08:35:18.669Z,57856.00
2019-04-22T08:36:18.395Z,57728.00
2019-04-22T08:38:11.422Z,58112.00
2019-04-22T08:39:16.750Z,57376.00
2019-04-22T08:40:17.006Z,56352.00
2019-04-22T08:41:16.541Z,60160.00
2019-04-22T08:42:23.922Z,64704.00
2019-04-22T08:43:12.646Z,68000.00
2019-04-22T08:44:07.974Z,71872.00
2019-04-22T08:45:18.687Z,73120.00
2019-04-22T08:46:17.091Z,73888.00
2019-04-22T08:48:07.715Z,74752.00
2019-04-22T08:49:08.208Z,73248.00
2019-04-22T08:51:18.514Z,74880.00
2019-04-22T08:53:16.061Z,75392.00
2019-04-22T08:54:28.295Z,75264.00
2019-04-22T08:55:11.335Z,73792.00
2019-04-22T08:56:24.041Z,75712.00
2019-04-22T08:57:13.867Z,74624.00
2019-04-22T08:58:20.265Z,75456.00
2019-04-22T09:00:08.396Z,78560.00
2019-04-22T09:01:15.952Z,77568.00
2019-04-22T09:02:13.301Z,77728.00
2019-04-22T09:03:10.695Z,76800.00
2019-04-22T09:55:19.833Z,101312.00
2019-04-22T09:56:18.193Z,101088.00
2019-04-22T09:57:18.357Z,99808.00
2019-04-22T09:58:16.270Z,101088.00
2019-04-22T09:59:13.557Z,100992.00
2019-04-22T10:00:16.947Z,102080.00
2019-04-22T10:03:16.635Z,101216.00
2019-04-22T10:04:14.263Z,101152.00
2019-04-22T10:05:20.841Z,102688.00
2019-04-22T10:06:23.179Z,103168.00
2019-04-22T10:07:17.554Z,105568.00
2019-04-22T10:08:24.347Z,104960.00
2019-04-22T10:10:17.123Z,103488.00
2019-04-22T10:11:21.078Z,100928.00
2019-04-22T10:12:19.038Z,100832.00
2019-04-22T10:13:19.051Z,99488.00
2019-04-22T10:14:13.659Z,100224.00
2019-04-22T10:15:13.889Z,99808.00
2019-04-22T10:16:19.692Z,100256.00
2019-04-22T10:17:15.624Z,99520.00
2019-04-22T10:18:19.337Z,98976.00
2019-04-22T10:19:31.367Z,99904.00
2019-04-22T10:20:15.075Z,100864.00
2019-04-22T10:21:16.495Z,91136.00
2019-04-22T10:22:23.866Z,96992.00
2019-04-22T10:23:16.443Z,95456.00
2019-04-22T10:24:13.845Z,93056.00
2019-04-22T10:25:32.787Z,93792.00
2019-04-22T10:26:16.266Z,95488.00
2019-04-22T10:27:13.990Z,96608.00
2019-04-22T10:28:14.818Z,94368.00
2019-04-22T10:30:08.985Z,90176.00
2019-04-22T10:31:21.899Z,89312.00
2019-04-22T10:32:11.252Z,86560.00
2019-04-22T10:33:13.206Z,86400.00
2019-04-22T10:34:02.730Z,86688.00
2019-04-22T10:34:57.234Z,88256.00
2019-04-22T10:35:49.644Z,91136.00
2019-04-22T10:36:52.778Z,91552.00
2019-04-22T10:37:50.065Z,87648.00
2019-04-22T10:38:48.699Z,87552.00
2019-04-22T10:39:55.098Z,87968.00
2019-04-22T10:40:50.241Z,86784.00
2019-04-22T10:41:48.661Z,90208.00
2019-04-22T10:42:47.618Z,91264.00
2019-04-22T10:43:47.689Z,90368.00
2019-04-22T10:44:48.535Z,91104.00
2019-04-22T10:45:48.087Z,92352.00
2019-04-22T10:46:48.295Z,90912.00
2019-04-22T10:47:48.027Z,92064.00
2019-04-22T10:48:48.357Z,92256.00
2019-04-22T10:49:48.636Z,91872.00
2019-04-22T10:50:48.739Z,93248.00
2019-04-22T10:51:48.711Z,93664.00
2019-04-22T10:52:47.779Z,93664.00
2019-04-22T10:53:47.488Z,94400.00
2019-04-22T10:54:47.474Z,94752.00
2019-04-22T10:55:49.296Z,91584.00
2019-04-22T10:56:48.703Z,87680.00
2019-04-22T10:57:48.629Z,87168.00
2019-04-22T10:58:48.812Z,87360.00
2019-04-22T10:59:47.427Z,88320.00
2019-04-22T11:00:47.477Z,93472.00
2019-04-22T11:01:48.659Z,94912.00
2019-04-22T11:02:47.849Z,94912.00
2019-04-22T11:03:48.953Z,95040.00
2019-04-22T11:04:48.136Z,94880.00
2019-04-22T11:05:48.410Z,90048.00
2019-04-22T11:06:53.063Z,89632.00
2019-04-22T11:07:54.005Z,92160.00
2019-04-22T11:08:53.980Z,90752.00
2019-04-22T11:09:58.182Z,93408.00
2019-04-22T11:11:04.673Z,89504.00
2019-04-22T11:11:56.548Z,89376.00
2019-04-22T11:12:49.307Z,90432.00
2019-04-22T11:13:47.557Z,91456.00
2019-04-22T11:14:47.649Z,95616.00
2019-04-22T11:15:48.694Z,93056.00
2019-04-22T11:16:47.696Z,94112.00
2019-04-22T11:17:47.318Z,92192.00
2019-04-22T11:18:47.623Z,92192.00
2019-04-22T11:19:47.893Z,92576.00
2019-04-22T11:20:47.448Z,91072.00
2019-04-22T11:21:59.931Z,90272.00
2019-04-22T11:22:48.975Z,92576.00
2019-04-22T11:23:47.169Z,93248.00
2019-04-22T11:24:48.586Z,93216.00
2019-04-22T11:25:48.018Z,91648.00
2019-04-22T11:26:47.143Z,90976.00
2019-04-22T11:27:47.284Z,89504.00
2019-04-22T11:28:47.640Z,89280.00
2019-04-22T11:29:47.673Z,89088.00
2019-04-22T11:30:48.220Z,88672.00
2019-04-22T11:31:48.250Z,88896.00
2019-04-22T11:32:48.587Z,91104.00
2019-04-22T11:33:48.305Z,94176.00
2019-04-22T11:34:47.113Z,97760.00
2019-04-22T11:35:47.954Z,95520.00
2019-04-22T11:36:47.238Z,94432.00
2019-04-22T11:37:48.552Z,92640.00
2019-04-22T11:38:55.215Z,92320.00
2019-04-22T11:40:00.216Z,93472.00
2019-04-22T11:40:52.289Z,94272.00
2019-04-22T11:41:47.986Z,93408.00
2019-04-22T11:42:48.206Z,96096.00
2019-04-22T11:43:47.352Z,93696.00
2019-04-22T11:44:47.488Z,95200.00
2019-04-22T11:45:47.134Z,91552.00
2019-04-22T11:46:47.468Z,91744.00
2019-04-22T11:47:47.597Z,88928.00
2019-04-22T11:48:47.751Z,89856.00
2019-04-22T11:49:47.947Z,92896.00
2019-04-22T11:50:48.133Z,92128.00
2019-04-22T11:51:47.806Z,94560.00
2019-04-22T11:52:46.987Z,92960.00
2019-04-22T11:53:47.080Z,91936.00
2019-04-22T11:54:46.845Z,91744.00
2019-04-22T11:55:46.874Z,90304.00
2019-04-22T11:56:47.305Z,91232.00
2019-04-22T11:57:47.741Z,89312.00
2019-04-22T11:58:47.023Z,88672.00
2019-04-22T11:59:47.045Z,90688.00
2019-04-22T12:00:46.790Z,90976.00
2019-04-22T12:01:46.881Z,91904.00
2019-04-22T12:02:47.142Z,93632.00
2019-04-22T12:03:46.751Z,91744.00
2019-04-22T12:04:47.723Z,92096.00
2019-04-22T12:05:47.989Z,93184.00
2019-04-22T12:06:46.729Z,92768.00
2019-04-22T12:07:47.069Z,91552.00
2019-04-22T12:08:47.801Z,90624.00
2019-04-22T12:09:47.826Z,89216.00
2019-04-22T12:10:51.689Z,88512.00
2019-04-22T12:11:47.696Z,88128.00
2019-04-22T12:12:48.328Z,83104.00
2019-04-22T12:13:46.654Z,85664.00
2019-04-22T12:14:48.015Z,84800.00
2019-04-22T12:15:46.879Z,85664.00
2019-04-22T12:16:47.634Z,87104.00
2019-04-22T12:17:46.621Z,86816.00
2019-04-22T12:18:47.212Z,87168.00
2019-04-22T12:19:48.219Z,86656.00
2019-04-22T12:20:47.473Z,85440.00
2019-04-22T12:21:46.846Z,86688.00
2019-04-22T12:22:47.307Z,88480.00
2019-04-22T12:23:47.269Z,89024.00
2019-04-22T12:24:47.903Z,90592.00
2019-04-22T12:25:52.297Z,90592.00
2019-04-22T12:26:48.399Z,89056.00
2019-04-22T12:27:47.275Z,88576.00
2019-04-22T12:28:46.827Z,87424.00
2019-04-22T12:29:47.052Z,87072.00
2019-04-22T12:30:47.774Z,86400.00
2019-04-22T12:31:47.260Z,86368.00
2019-04-22T12:32:46.448Z,84928.00
2019-04-22T12:33:47.629Z,83200.00
2019-04-22T12:34:47.160Z,83808.00
2019-04-22T12:35:46.519Z,84608.00
2019-04-22T12:36:46.861Z,86240.00
2019-04-22T12:37:51.484Z,86976.00
2019-04-22T12:38:47.671Z,85408.00
2019-04-22T12:39:48.087Z,84192.00
2019-04-22T12:40:54.424Z,85184.00
2019-04-22T12:41:47.353Z,85888.00
2019-04-22T12:42:47.173Z,83296.00
2019-04-22T12:43:47.387Z,82208.00
2019-04-22T12:44:47.708Z,85856.00
2019-04-22T12:45:47.870Z,83264.00
2019-04-22T12:46:46.312Z,75456.00
2019-04-22T12:47:46.428Z,67136.00
2019-04-22T12:48:46.885Z,50496.00
2019-04-22T12:49:54.417Z,36384.00
2019-04-22T12:50:50.042Z,30464.00
2019-04-22T12:51:47.365Z,36704.00
2019-04-22T12:52:53.275Z,51072.00
2019-04-22T12:53:48.758Z,66336.00
2019-04-22T12:54:46.889Z,67872.00
2019-04-22T12:55:46.213Z,58208.00
2019-04-22T12:56:46.213Z,58272.00
2019-04-22T12:57:46.510Z,69312.00
2019-04-22T12:58:47.556Z,77568.00
2019-04-22T12:59:46.173Z,79616.00
2019-04-22T13:00:46.157Z,75872.00
2019-04-22T13:01:46.862Z,75552.00
2019-04-22T13:02:47.308Z,76000.00
2019-04-22T13:03:46.495Z,74560.00
2019-04-22T13:04:46.123Z,74880.00
2019-04-22T13:05:47.033Z,73632.00
2019-04-22T13:06:46.182Z,73728.00
2019-04-22T13:07:47.391Z,72544.00
2019-04-22T13:08:47.554Z,72416.00
2019-04-22T13:09:47.286Z,73408.00
2019-04-22T13:10:55.475Z,73856.00
2019-04-22T13:11:48.824Z,72288.00
2019-04-22T13:12:47.054Z,70976.00
2019-04-22T13:13:47.058Z,70048.00
2019-04-22T13:14:46.009Z,67200.00
2019-04-22T13:15:46.831Z,64832.00
2019-04-22T13:16:47.289Z,64576.00
2019-04-22T13:17:46.317Z,66848.00
2019-04-22T13:18:53.131Z,64608.00
2019-04-22T13:19:47.859Z,62080.00
2019-04-22T13:20:46.383Z,65888.00
2019-04-22T13:21:46.821Z,69664.00
2019-04-22T13:22:45.938Z,65120.00
2019-04-22T13:23:46.643Z,67168.00
2019-04-22T13:24:45.919Z,66592.00
2019-04-22T13:25:47.157Z,65600.00
2019-04-22T13:26:45.910Z,65728.00
2019-04-22T13:27:46.819Z,65504.00
2019-04-22T13:28:47.195Z,64320.00
2019-04-22T13:29:46.824Z,62848.00
2019-04-22T13:30:46.524Z,63008.00
2019-04-22T13:31:46.576Z,64480.00
2019-04-22T13:32:47.119Z,64768.00
2019-04-22T13:33:46.681Z,67072.00
2019-04-22T13:34:51.513Z,67392.00
2019-04-22T13:35:48.029Z,66816.00
2019-04-22T13:36:47.043Z,63136.00
2019-04-22T13:37:46.785Z,61696.00
2019-04-22T13:38:46.812Z,63584.00
2019-04-22T13:39:46.980Z,66016.00
2019-04-22T13:41:02.221Z,65280.00
2019-04-22T13:41:52.188Z,64832.00
2019-04-22T13:42:46.862Z,65664.00
2019-04-22T13:43:47.163Z,64736.00
2019-04-22T13:44:46.150Z,63648.00
2019-04-22T13:45:45.797Z,62304.00
2019-04-22T13:47:03.779Z,62336.00
2019-04-22T13:48:01.537Z,64160.00
2019-04-22T13:49:17.833Z,65696.00
2019-04-22T13:50:34.547Z,63840.00
2019-04-22T13:51:13.224Z,61376.00
2019-04-22T13:52:20.652Z,61376.00
2019-04-22T13:54:18.847Z,63872.00
2019-04-22T13:54:42.286Z,63616.00
2019-04-22T13:55:15.909Z,64000.00
2019-04-22T13:56:10.448Z,64416.00
2019-04-22T13:57:03.693Z,64064.00
2019-04-22T13:58:00.741Z,63712.00
2019-04-22T13:58:58.890Z,62560.00
2019-04-22T13:59:52.406Z,62368.00
2019-04-22T14:00:46.906Z,61664.00
2019-04-22T14:01:46.419Z,61664.00
2019-04-22T14:02:46.604Z,62592.00
2019-04-22T14:03:46.889Z,62848.00
2019-04-22T14:04:46.381Z,62496.00
2019-04-22T14:05:46.655Z,62112.00
2019-04-22T14:06:46.907Z,58752.00
2019-04-22T14:07:46.644Z,55264.00
2019-04-22T14:08:45.439Z,58656.00
2019-04-22T14:09:46.530Z,61376.00
2019-04-22T14:10:45.415Z,60736.00
2019-04-22T14:11:52.888Z,60032.00
2019-04-22T14:12:46.774Z,59744.00
2019-04-22T14:13:46.145Z,58496.00
2019-04-22T14:14:46.137Z,58848.00
2019-04-22T14:15:46.592Z,57184.00
2019-04-22T14:16:46.621Z,55584.00
2019-04-22T14:17:45.461Z,57312.00
2019-04-22T14:18:46.105Z,58560.00
2019-04-22T14:19:46.519Z,56800.00
2019-04-22T14:20:46.854Z,55840.00
2019-04-22T14:21:47.361Z,56288.00
2019-04-22T14:22:46.287Z,54816.00
2019-04-22T14:23:46.677Z,53728.00
2019-04-22T14:24:46.687Z,51968.00
2019-04-22T14:25:46.395Z,49728.00
2019-04-22T14:26:58.854Z,50208.00
2019-04-22T14:27:54.484Z,52000.00
2019-04-22T14:28:46.220Z,52864.00
2019-04-22T14:29:45.210Z,52512.00
2019-04-22T14:30:46.379Z,51872.00
2019-04-22T14:31:46.340Z,52192.00